createdAt,value
2022-09-13T00:00:38.362Z,67.19
2022-09-13T00:01:38.340Z,68.64
2022-09-13T00:02:38.324Z,67.51
2022-09-13T00:03:38.367Z,68.32
2022-09-13T00:04:38.301Z,69.13
2022-09-13T00:05:38.298Z,68.48
2022-09-13T00:06:38.335Z,68.00
2022-09-13T00:07:38.295Z,68.64
2022-09-13T00:08:38.266Z,64.94
2022-09-13T00:09:38.257Z,67.84
2022-09-13T00:10:38.269Z,68.80
2022-09-13T00:11:38.276Z,68.80
2022-09-13T00:12:38.234Z,69.13
2022-09-13T00:13:38.242Z,70.09
2022-09-13T00:14:38.227Z,68.64
2022-09-13T00:15:38.226Z,68.48
2022-09-13T00:16:38.271Z,67.35
2022-09-13T00:17:38.238Z,71.70
2022-09-13T00:18:38.200Z,70.09
2022-09-13T00:19:38.194Z,69.13
2022-09-13T00:20:38.181Z,66.87
2022-09-13T00:21:38.166Z,68.80
2022-09-13T00:22:38.180Z,67.35
2022-09-13T00:23:38.197Z,69.45
2022-09-13T00:24:38.141Z,64.78
2022-09-13T00:25:38.145Z,69.13
2022-09-13T00:26:38.180Z,68.96
2022-09-13T00:27:38.145Z,70.09
2022-09-13T00:28:38.138Z,67.03
2022-09-13T00:29:38.118Z,67.84
2022-09-13T00:30:38.100Z,68.32
2022-09-13T00:31:38.129Z,68.80
2022-09-13T00:32:38.099Z,70.74
2022-09-13T00:33:38.087Z,69.45
2022-09-13T00:34:38.096Z,68.96
2022-09-13T00:35:38.097Z,65.74
2022-09-13T00:36:38.056Z,68.32
2022-09-13T00:37:38.051Z,68.64
2022-09-13T00:38:38.041Z,68.00
2022-09-13T00:39:38.029Z,72.03
2022-09-13T00:40:38.039Z,67.51
2022-09-13T00:41:38.014Z,65.90
2022-09-13T00:42:37.998Z,68.96
2022-09-13T00:43:38.016Z,67.84
2022-09-13T00:44:37.987Z,72.35
2022-09-13T00:45:38.082Z,69.77
2022-09-13T00:46:38.032Z,70.74
2022-09-13T00:47:37.965Z,69.13
2022-09-13T00:48:37.956Z,70.25
2022-09-13T00:49:37.947Z,69.13
2022-09-13T00:50:37.940Z,68.00
2022-09-13T00:51:37.946Z,67.51
2022-09-13T00:52:37.923Z,69.13
2022-09-13T00:53:37.908Z,68.64
2022-09-13T00:54:37.904Z,69.29
2022-09-13T00:55:37.895Z,68.96
2022-09-13T00:56:37.896Z,71.22
2022-09-13T00:57:37.930Z,70.09
2022-09-13T00:58:37.875Z,69.45
2022-09-13T00:59:37.983Z,68.16
2022-09-13T01:00:37.887Z,68.00
2022-09-13T01:01:37.836Z,69.93
2022-09-13T01:02:37.838Z,71.06
2022-09-13T01:03:37.905Z,71.06
2022-09-13T01:04:37.820Z,71.06
2022-09-13T01:05:38.052Z,70.58
2022-09-13T01:06:37.855Z,69.77
2022-09-13T01:07:37.805Z,71.06
2022-09-13T01:08:37.782Z,69.45
2022-09-13T01:09:37.788Z,67.35
2022-09-13T01:10:37.771Z,70.25
2022-09-13T01:11:37.789Z,69.13
2022-09-13T01:12:37.786Z,68.96
2022-09-13T01:13:37.758Z,68.96
2022-09-13T01:14:37.745Z,68.32
2022-09-13T01:15:37.735Z,73.32
2022-09-13T01:16:37.839Z,69.45
2022-09-13T01:17:37.747Z,69.45
2022-09-13T01:18:37.704Z,71.06
2022-09-13T01:19:37.708Z,69.93
2022-09-13T01:20:37.699Z,64.61
2022-09-13T01:21:37.677Z,69.61
2022-09-13T01:22:37.675Z,70.09
2022-09-13T01:23:37.713Z,69.61
2022-09-13T01:24:37.665Z,71.38
2022-09-13T01:25:37.657Z,67.84
2022-09-13T01:26:37.748Z,69.61
2022-09-13T01:27:37.642Z,69.13
2022-09-13T01:28:37.648Z,67.19
2022-09-13T01:29:37.632Z,67.68
2022-09-13T01:30:37.624Z,69.45
2022-09-13T01:31:37.638Z,72.03
2022-09-13T01:32:37.594Z,69.93
2022-09-13T01:33:37.655Z,70.74
2022-09-13T01:34:37.593Z,69.45
2022-09-13T01:35:37.598Z,70.25
2022-09-13T01:36:37.559Z,67.19
2022-09-13T01:37:37.580Z,69.93
2022-09-13T01:38:37.617Z,69.45
2022-09-13T01:39:37.539Z,68.16
2022-09-13T01:40:37.556Z,67.51
2022-09-13T01:41:37.528Z,68.96
2022-09-13T01:42:37.513Z,69.13
2022-09-13T01:43:37.568Z,68.96
2022-09-13T01:44:37.513Z,69.61
2022-09-13T01:45:37.538Z,67.84
2022-09-13T01:46:37.493Z,69.45
2022-09-13T01:47:37.478Z,65.90
2022-09-13T01:48:37.458Z,68.16
2022-09-13T01:49:37.454Z,69.77
2022-09-13T01:50:37.445Z,68.80
2022-09-13T01:51:37.456Z,71.38
2022-09-13T01:52:37.450Z,70.42
2022-09-13T01:53:37.460Z,69.45
2022-09-13T01:54:37.410Z,70.74
2022-09-13T01:55:37.417Z,70.42
2022-09-13T01:56:37.399Z,70.42
2022-09-13T01:57:37.423Z,69.77
2022-09-13T01:58:37.388Z,69.93
2022-09-13T01:59:37.370Z,71.38
2022-09-13T02:00:37.354Z,68.32
2022-09-13T02:01:37.411Z,70.74
2022-09-13T02:02:37.434Z,70.74
2022-09-13T02:03:37.478Z,69.45
2022-09-13T02:04:37.339Z,68.16
2022-09-13T02:05:37.329Z,69.29
2022-09-13T02:06:37.321Z,69.29
2022-09-13T02:07:37.329Z,68.64
2022-09-13T02:08:37.335Z,70.09
2022-09-13T02:09:37.300Z,69.93
2022-09-13T02:10:37.361Z,70.42
2022-09-13T02:11:37.278Z,68.16
2022-09-13T02:12:37.267Z,68.48
2022-09-13T02:13:37.350Z,70.09
2022-09-13T02:14:37.288Z,70.58
2022-09-13T02:15:37.251Z,70.09
2022-09-13T02:16:37.264Z,69.61
2022-09-13T02:17:37.233Z,68.48
2022-09-13T02:18:37.232Z,68.96
2022-09-13T02:19:37.228Z,70.42
2022-09-13T02:20:37.234Z,68.96
2022-09-13T02:21:37.227Z,70.58
2022-09-13T02:22:37.207Z,71.22
2022-09-13T02:23:37.250Z,70.42
2022-09-13T02:24:37.177Z,73.48
2022-09-13T02:25:37.188Z,68.96
2022-09-13T02:26:37.234Z,70.58
2022-09-13T02:27:37.171Z,71.06
2022-09-13T02:28:37.150Z,71.22
2022-09-13T02:29:37.133Z,71.06
2022-09-13T02:30:37.125Z,69.93
2022-09-13T02:31:37.215Z,70.09
2022-09-13T02:32:37.108Z,69.13
2022-09-13T02:33:37.180Z,68.80
2022-09-13T02:34:37.093Z,70.58
2022-09-13T02:35:37.110Z,70.42
2022-09-13T02:36:37.072Z,68.80
2022-09-13T02:37:37.099Z,69.45
2022-09-13T02:38:37.066Z,69.93
2022-09-13T02:39:37.052Z,69.45
2022-09-13T02:40:37.051Z,69.45
2022-09-13T02:41:37.040Z,68.32
2022-09-13T02:42:37.086Z,66.87
2022-09-13T02:43:37.076Z,71.06
2022-09-13T02:44:37.006Z,68.96
2022-09-13T02:45:37.040Z,69.13
2022-09-13T02:46:37.040Z,67.84
2022-09-13T02:47:37.020Z,70.42
2022-09-13T02:48:37.445Z,68.00
2022-09-13T02:49:36.972Z,67.51
2022-09-13T02:50:36.963Z,67.03
2022-09-13T02:51:36.969Z,68.80
2022-09-13T02:52:36.953Z,70.09
2022-09-13T02:53:36.944Z,68.16
2022-09-13T02:54:36.967Z,68.96
2022-09-13T02:55:37.589Z,69.29
2022-09-13T02:56:36.918Z,69.45
2022-09-13T02:57:36.954Z,68.32
2022-09-13T02:58:36.945Z,69.77
2022-09-13T02:59:36.901Z,69.93
2022-09-13T03:00:36.910Z,70.42
2022-09-13T03:01:36.941Z,68.64
2022-09-13T03:02:36.893Z,68.80
2022-09-13T03:03:36.847Z,71.06
2022-09-13T03:04:36.853Z,66.23
2022-09-13T03:05:36.839Z,71.06
2022-09-13T03:06:36.853Z,69.61
2022-09-13T03:07:36.821Z,73.15
2022-09-13T03:08:36.833Z,69.29
2022-09-13T03:09:36.808Z,69.93
2022-09-13T03:10:36.805Z,69.61
2022-09-13T03:11:36.857Z,71.22
2022-09-13T03:12:36.808Z,69.93
2022-09-13T03:13:36.772Z,70.42
2022-09-13T03:14:36.768Z,71.38
2022-09-13T03:15:36.780Z,70.25
2022-09-13T03:16:36.861Z,71.54
2022-09-13T03:17:36.736Z,68.96
2022-09-13T03:18:36.732Z,65.90
2022-09-13T03:19:36.731Z,69.29
2022-09-13T03:20:36.709Z,70.90
2022-09-13T03:21:36.722Z,71.87
2022-09-13T03:22:36.712Z,69.93
2022-09-13T03:23:36.686Z,72.03
2022-09-13T03:24:36.681Z,71.70
2022-09-13T03:25:36.670Z,70.58
2022-09-13T03:26:36.696Z,71.38
2022-09-13T03:27:36.659Z,72.19
2022-09-13T03:28:36.851Z,70.90
2022-09-13T03:29:36.632Z,70.58
2022-09-13T03:30:36.626Z,71.06
2022-09-13T03:31:36.645Z,71.22
2022-09-13T03:32:36.624Z,71.22
2022-09-13T03:33:36.600Z,70.90
2022-09-13T03:34:36.639Z,69.45
2022-09-13T03:35:36.584Z,69.45
2022-09-13T03:36:36.577Z,71.06
2022-09-13T03:37:36.595Z,69.29
2022-09-13T03:38:36.552Z,68.80
2022-09-13T03:39:36.581Z,68.64
2022-09-13T03:43:02.706Z,67.84
2022-09-13T03:44:02.693Z,68.80
2022-09-13T03:45:02.677Z,69.45
2022-09-13T03:46:02.726Z,69.93
2022-09-13T03:47:02.661Z,68.16
2022-09-13T03:48:02.696Z,70.25
2022-09-13T03:49:02.662Z,70.09
2022-09-13T03:50:02.633Z,71.70
2022-09-13T03:51:02.628Z,71.22
2022-09-13T03:52:02.617Z,69.13
2022-09-13T03:53:02.617Z,72.35
2022-09-13T03:54:02.635Z,69.93
2022-09-13T03:55:02.625Z,73.15
2022-09-13T03:56:02.620Z,70.90
2022-09-13T03:57:02.623Z,69.45
2022-09-13T03:58:02.559Z,70.42
2022-09-13T03:59:02.577Z,70.09
2022-09-13T04:00:02.557Z,70.42
2022-09-13T04:01:02.587Z,68.96
2022-09-13T04:02:02.570Z,68.00
2022-09-13T04:03:02.550Z,70.58
2022-09-13T04:04:02.523Z,70.42
2022-09-13T04:05:02.531Z,70.58
2022-09-13T04:06:02.500Z,71.54
2022-09-13T04:07:02.517Z,70.42
2022-09-13T04:08:02.481Z,68.64
2022-09-13T04:09:02.461Z,69.77
2022-09-13T04:10:02.475Z,69.29
2022-09-13T04:11:02.476Z,70.42
2022-09-13T04:12:02.462Z,70.09
2022-09-13T04:13:02.449Z,70.74
2022-09-13T04:14:02.444Z,69.93
2022-09-13T04:15:02.462Z,70.74
2022-09-13T04:16:02.522Z,69.61
2022-09-13T04:17:02.416Z,69.61
2022-09-13T04:18:02.437Z,70.74
2022-09-13T04:19:02.409Z,71.06
2022-09-13T04:20:02.414Z,71.70
2022-09-13T04:21:02.400Z,70.58
2022-09-13T04:22:02.443Z,75.09
2022-09-13T04:23:02.365Z,71.06
2022-09-13T04:24:02.355Z,71.38
2022-09-13T04:25:02.860Z,69.77
2022-09-13T04:26:02.333Z,70.42
2022-09-13T04:27:02.338Z,72.03
2022-09-13T04:28:02.323Z,70.58
2022-09-13T04:29:02.316Z,72.19
2022-09-13T04:30:02.326Z,72.67
2022-09-13T04:31:02.327Z,67.84
2022-09-13T04:32:02.299Z,72.03
2022-09-13T04:33:02.316Z,70.58
2022-09-13T04:34:02.285Z,73.32
2022-09-13T04:35:02.271Z,68.64
2022-09-13T04:36:02.283Z,69.45
2022-09-13T04:37:02.249Z,70.09
2022-09-13T04:38:02.239Z,70.90
2022-09-13T04:39:02.233Z,69.61
2022-09-13T04:40:02.278Z,70.90
2022-09-13T04:41:02.219Z,68.48
2022-09-13T04:42:02.241Z,70.90
2022-09-13T04:43:02.207Z,71.22
2022-09-13T04:44:02.205Z,68.96
2022-09-13T04:45:02.268Z,72.99
2022-09-13T04:46:02.251Z,70.90
2022-09-13T04:47:02.175Z,69.61
2022-09-13T04:48:02.196Z,68.64
2022-09-13T04:49:02.153Z,71.54
2022-09-13T04:50:02.226Z,71.87
2022-09-13T04:51:02.149Z,71.87
2022-09-13T04:52:02.130Z,70.09
2022-09-13T04:53:02.128Z,71.87
2022-09-13T04:54:02.148Z,71.54
2022-09-13T04:55:02.124Z,69.93
2022-09-13T04:56:02.094Z,70.42
2022-09-13T04:57:02.113Z,70.42
2022-09-13T04:58:02.078Z,71.38
2022-09-13T04:59:02.081Z,71.38
2022-09-13T05:00:02.109Z,71.87
2022-09-13T05:01:02.090Z,72.19
2022-09-13T05:02:02.110Z,71.06
2022-09-13T05:03:02.050Z,72.35
2022-09-13T05:04:02.029Z,72.03
2022-09-13T05:05:02.034Z,75.25
2022-09-13T05:06:02.069Z,71.06
2022-09-13T05:07:02.022Z,69.93
2022-09-13T05:08:02.000Z,70.74
2022-09-13T05:09:02.023Z,70.25
2022-09-13T05:10:02.006Z,70.58
2022-09-13T05:11:01.982Z,71.22
2022-09-13T05:12:01.979Z,71.06
2022-09-13T05:13:01.968Z,72.35
2022-09-13T05:14:01.980Z,70.09
2022-09-13T05:15:01.973Z,72.35
2022-09-13T05:16:02.003Z,71.87
2022-09-13T05:17:01.927Z,71.54
2022-09-13T05:18:01.931Z,74.77
2022-09-13T05:19:01.916Z,71.38
2022-09-13T05:20:01.910Z,70.58
2022-09-13T05:21:01.925Z,70.58
2022-09-13T05:22:01.962Z,68.80
2022-09-13T05:23:01.873Z,69.13
2022-09-13T05:24:01.891Z,72.19
2022-09-13T05:25:01.871Z,71.22
2022-09-13T05:26:01.888Z,72.99
2022-09-13T05:27:01.856Z,70.09
2022-09-13T05:28:01.852Z,71.54
2022-09-13T05:29:01.858Z,70.74
2022-09-13T05:30:01.832Z,70.90
2022-09-13T05:31:01.878Z,70.42
2022-09-13T05:32:01.837Z,71.54
2022-09-13T05:33:01.802Z,70.90
2022-09-13T05:34:01.796Z,73.96
2022-09-13T05:35:01.795Z,72.35
2022-09-13T05:36:01.778Z,71.70
2022-09-13T05:37:01.806Z,70.74
2022-09-13T05:38:01.819Z,71.54
2022-09-13T05:40:17.795Z,67.03
2022-09-13T05:41:02.746Z,64.94
2022-09-13T05:42:01.776Z,69.77
2022-09-13T05:43:01.735Z,68.96
2022-09-13T05:44:10.327Z,69.45
2022-09-13T05:45:02.718Z,70.09
2022-09-13T05:46:01.784Z,70.42
2022-09-13T05:47:01.709Z,70.42
2022-09-13T05:48:01.717Z,69.93
2022-09-13T05:49:01.673Z,68.96
2022-09-13T05:50:10.149Z,69.77
2022-09-13T05:51:02.663Z,72.03
2022-09-13T05:52:01.703Z,71.70
2022-09-13T05:53:01.659Z,68.96
2022-09-13T05:54:01.655Z,69.61
2022-09-13T05:55:01.643Z,69.77
2022-09-13T05:56:01.687Z,71.87
2022-09-13T05:57:01.631Z,70.25
2022-09-13T05:58:01.605Z,71.38
2022-09-13T05:59:01.619Z,70.74
2022-09-13T06:00:01.603Z,70.42
2022-09-13T06:01:01.583Z,71.70
2022-09-13T06:02:01.623Z,70.25
2022-09-13T06:03:01.596Z,69.77
2022-09-13T06:04:01.570Z,70.42
2022-09-13T06:05:01.543Z,71.06
2022-09-13T06:06:01.582Z,68.80
2022-09-13T06:07:01.546Z,71.22
2022-09-13T06:08:01.533Z,70.42
2022-09-13T06:09:01.535Z,69.45
2022-09-13T06:10:01.561Z,70.42
2022-09-13T06:11:01.503Z,70.09
2022-09-13T06:12:01.514Z,69.61
2022-09-13T06:13:01.488Z,70.90
2022-09-13T06:14:01.483Z,71.22
2022-09-13T06:15:01.476Z,70.09
2022-09-13T06:16:01.516Z,71.22
2022-09-13T06:17:01.481Z,69.29
2022-09-13T06:18:01.491Z,72.51
2022-09-13T06:19:01.441Z,71.38
2022-09-13T06:20:01.464Z,71.54
2022-09-13T06:21:01.439Z,70.09
2022-09-13T06:22:01.435Z,69.77
2022-09-13T06:23:01.422Z,69.45
2022-09-13T06:24:01.431Z,70.58
2022-09-13T06:25:01.398Z,69.29
2022-09-13T06:26:01.452Z,71.54
2022-09-13T06:27:01.432Z,72.19
2022-09-13T06:28:01.455Z,69.45
2022-09-13T06:29:01.370Z,70.25
2022-09-13T06:30:01.390Z,72.35
2022-09-13T06:31:01.410Z,70.74
2022-09-13T06:32:01.356Z,69.93
2022-09-13T06:33:01.342Z,71.54
2022-09-13T06:34:01.356Z,69.77
2022-09-13T06:35:01.346Z,72.51
2022-09-13T06:36:01.410Z,71.38
2022-09-13T06:37:01.321Z,70.42
2022-09-13T06:38:01.316Z,71.22
2022-09-13T06:39:01.297Z,71.54
2022-09-13T06:40:01.360Z,71.22
2022-09-13T06:41:01.318Z,71.54
2022-09-13T06:42:01.296Z,69.45
2022-09-13T06:43:01.257Z,68.48
2022-09-13T06:44:01.264Z,70.90
2022-09-13T06:45:01.245Z,71.38
2022-09-13T06:46:01.342Z,69.77
2022-09-13T06:47:01.229Z,71.38
2022-09-13T06:48:01.230Z,65.90
2022-09-13T06:49:01.213Z,68.00
2022-09-13T06:50:01.217Z,70.90
2022-09-13T06:51:01.321Z,70.74
2022-09-13T06:52:01.211Z,69.13
2022-09-13T06:53:01.187Z,70.09
2022-09-13T06:54:01.187Z,72.03
2022-09-13T06:55:01.172Z,70.09
2022-09-13T06:56:01.162Z,69.77
2022-09-13T06:57:01.193Z,70.25
2022-09-13T06:58:01.152Z,72.83
2022-09-13T06:59:01.166Z,70.25
2022-09-13T07:00:01.138Z,66.87
2022-09-13T07:01:01.160Z,65.90
2022-09-13T07:02:01.171Z,68.80
2022-09-13T07:03:01.129Z,68.00
2022-09-13T07:04:01.100Z,68.16
2022-09-13T07:05:01.085Z,69.61
2022-09-13T07:06:01.085Z,69.93
2022-09-13T07:07:01.074Z,71.22
2022-09-13T07:08:01.065Z,71.06
2022-09-13T07:09:01.076Z,71.22
2022-09-13T07:10:01.043Z,74.44
2022-09-13T07:11:01.038Z,70.90
2022-09-13T07:12:01.018Z,69.93
2022-09-13T07:13:01.012Z,70.58
2022-09-13T07:14:01.038Z,68.96
2022-09-13T07:15:01.016Z,69.61
2022-09-13T07:16:01.054Z,69.45
2022-09-13T07:17:00.982Z,72.03
2022-09-13T07:18:00.965Z,70.42
2022-09-13T07:19:00.965Z,70.58
2022-09-13T07:20:00.960Z,71.06
2022-09-13T07:21:00.979Z,72.67
2022-09-13T07:22:00.928Z,69.77
2022-09-13T07:23:00.931Z,67.19
2022-09-13T07:24:00.929Z,69.77
2022-09-13T07:25:00.921Z,71.38
2022-09-13T07:26:00.902Z,69.93
2022-09-13T07:27:00.918Z,70.42
2022-09-13T07:28:00.896Z,71.70
2022-09-13T07:29:00.876Z,72.35
2022-09-13T07:30:00.951Z,70.25
2022-09-13T07:31:00.937Z,69.93
2022-09-13T07:32:00.870Z,69.45
2022-09-13T07:33:00.877Z,70.09
2022-09-13T07:34:00.867Z,67.84
2022-09-13T07:35:00.834Z,68.00
2022-09-13T07:36:00.825Z,70.25
2022-09-13T07:37:00.818Z,68.80
2022-09-13T07:38:00.813Z,68.64
2022-09-13T07:39:00.801Z,71.06
2022-09-13T07:40:00.846Z,70.58
2022-09-13T07:41:00.787Z,69.93
2022-09-13T07:42:00.778Z,70.25
2022-09-13T07:43:00.796Z,68.64
2022-09-13T07:44:00.765Z,69.29
2022-09-13T07:45:00.818Z,70.90
2022-09-13T07:46:00.797Z,68.64
2022-09-13T07:47:00.741Z,70.74
2022-09-13T07:48:00.739Z,71.87
2022-09-13T07:49:00.813Z,68.48
2022-09-13T07:50:00.719Z,71.87
2022-09-13T07:51:00.709Z,70.58
2022-09-13T07:52:00.717Z,69.13
2022-09-13T07:53:00.697Z,72.03
2022-09-13T07:54:00.683Z,71.06
2022-09-13T07:55:00.715Z,70.58
2022-09-13T07:56:00.662Z,68.64
2022-09-13T07:57:00.691Z,69.77
2022-09-13T07:58:00.663Z,68.96
2022-09-13T07:59:00.649Z,69.29
2022-09-13T08:00:00.649Z,68.00
2022-09-13T08:01:00.649Z,71.06
2022-09-13T08:02:00.863Z,69.93
2022-09-13T08:03:00.637Z,68.00
2022-09-13T08:04:00.612Z,68.00
2022-09-13T08:05:00.645Z,70.09
2022-09-13T08:06:00.593Z,68.80
2022-09-13T08:07:00.594Z,70.09
2022-09-13T08:08:00.622Z,70.42
2022-09-13T08:09:00.572Z,68.00
2022-09-13T08:10:00.552Z,69.29
2022-09-13T08:11:00.544Z,68.00
2022-09-13T08:12:00.594Z,68.80
2022-09-13T08:13:00.530Z,69.45
2022-09-13T08:14:00.558Z,67.51
2022-09-13T08:15:00.511Z,68.48
2022-09-13T08:16:00.583Z,68.64
2022-09-13T08:17:00.493Z,70.42
2022-09-13T08:18:00.542Z,68.00
2022-09-13T08:19:00.492Z,65.58
2022-09-13T08:20:00.471Z,69.29
2022-09-13T08:21:00.451Z,66.87
2022-09-13T08:22:00.452Z,67.03
2022-09-13T08:23:00.440Z,67.51
2022-09-13T08:24:00.472Z,66.39
2022-09-13T08:25:00.439Z,70.58
2022-09-13T08:26:00.420Z,68.96
2022-09-13T08:27:00.427Z,67.51
2022-09-13T08:28:00.402Z,69.29
2022-09-13T08:29:00.401Z,66.87
2022-09-13T08:30:00.529Z,69.61
2022-09-13T08:31:00.453Z,65.58
2022-09-13T08:32:00.444Z,69.29
2022-09-13T08:33:00.375Z,73.80
2022-09-13T08:34:00.357Z,68.64
2022-09-13T08:35:00.384Z,68.00
2022-09-13T08:36:00.333Z,68.00
2022-09-13T08:37:00.381Z,67.68
2022-09-13T08:38:00.319Z,68.96
2022-09-13T08:39:00.338Z,66.87
2022-09-13T08:40:00.410Z,68.00
2022-09-13T08:41:00.321Z,68.16
2022-09-13T08:42:00.293Z,68.96
2022-09-13T08:43:00.284Z,68.64
2022-09-13T08:44:00.266Z,73.64
2022-09-13T08:45:00.267Z,67.51
2022-09-13T08:46:00.284Z,68.16
2022-09-13T08:47:00.245Z,68.16
2022-09-13T08:48:00.231Z,68.00
2022-09-13T08:49:00.230Z,66.87
2022-09-13T08:50:00.216Z,68.48
2022-09-13T08:51:00.227Z,72.19
2022-09-13T08:52:00.232Z,71.22
2022-09-13T08:53:00.194Z,72.19
2022-09-13T08:54:00.180Z,74.60
2022-09-13T08:55:00.195Z,69.45
2022-09-13T08:56:00.173Z,70.09
2022-09-13T08:57:00.177Z,68.48
2022-09-13T08:58:00.173Z,68.00
2022-09-13T08:59:00.147Z,69.93
2022-09-13T09:00:00.138Z,68.00
2022-09-13T09:01:00.169Z,69.29
2022-09-13T09:02:00.126Z,67.84
2022-09-13T09:03:00.121Z,68.64
2022-09-13T09:04:00.097Z,69.45
2022-09-13T09:05:00.127Z,66.39
2022-09-13T09:06:00.083Z,70.09
2022-09-13T09:07:00.110Z,68.96
2022-09-13T09:08:00.061Z,69.45
2022-09-13T09:09:00.055Z,69.45
2022-09-13T09:10:00.104Z,68.16
2022-09-13T09:11:00.079Z,68.16
2022-09-13T09:12:00.027Z,68.96
2022-09-13T09:13:00.033Z,68.32
2022-09-13T09:14:00.017Z,66.71
2022-09-13T09:15:00.017Z,67.03
2022-09-13T09:16:00.158Z,66.23
2022-09-13T09:17:00.027Z,66.39
2022-09-13T09:17:59.997Z,65.74
2022-09-13T09:18:59.983Z,69.77
2022-09-13T09:19:59.962Z,69.13
2022-09-13T09:20:59.997Z,66.39
2022-09-13T09:22:00.028Z,65.74
2022-09-13T09:22:59.975Z,67.19
2022-09-13T09:23:59.948Z,66.87
2022-09-13T09:24:59.940Z,65.26
2022-09-13T09:25:59.922Z,66.71
2022-09-13T09:26:59.921Z,67.51
2022-09-13T09:27:59.925Z,63.16
2022-09-13T09:28:59.902Z,66.39
2022-09-13T09:29:59.880Z,66.39
2022-09-13T09:31:00.023Z,64.94
2022-09-13T09:31:59.869Z,65.58
2022-09-13T09:32:59.849Z,65.74
2022-09-13T09:33:59.894Z,66.23
2022-09-13T09:34:59.860Z,68.32
2022-09-13T09:35:59.839Z,67.19
2022-09-13T09:36:59.839Z,68.80
2022-09-13T09:37:59.925Z,66.87
2022-09-13T09:38:59.830Z,67.35
2022-09-13T09:39:59.866Z,67.84
2022-09-13T09:41:07.374Z,69.29
2022-09-13T09:41:59.800Z,69.13
2022-09-13T09:42:59.789Z,66.39
2022-09-13T09:43:59.775Z,65.90
2022-09-13T09:44:59.756Z,68.16
2022-09-13T09:45:59.859Z,66.23
2022-09-13T09:46:59.753Z,68.16
2022-09-13T09:47:59.744Z,67.19
2022-09-13T09:48:59.748Z,67.35
2022-09-13T09:49:59.767Z,67.68
2022-09-13T09:50:59.711Z,68.00
2022-09-13T09:51:59.717Z,66.71
2022-09-13T09:52:59.712Z,67.84
2022-09-13T09:53:59.701Z,68.00
2022-09-13T09:54:59.698Z,66.55
2022-09-13T09:55:59.692Z,67.51
2022-09-13T09:56:59.666Z,67.51
2022-09-13T09:57:59.672Z,64.29
2022-09-13T09:58:59.653Z,65.90
2022-09-13T09:59:59.641Z,67.68
2022-09-13T10:00:59.769Z,68.80
2022-09-13T10:01:59.731Z,67.84
2022-09-13T10:02:59.617Z,68.96
2022-09-13T10:04:00.192Z,66.71
2022-09-13T10:04:59.596Z,68.00
2022-09-13T10:05:59.586Z,67.35
2022-09-13T10:06:59.609Z,67.68
2022-09-13T10:07:59.577Z,68.96
2022-09-13T10:08:59.616Z,68.00
2022-09-13T10:09:59.620Z,68.80
2022-09-13T10:10:59.550Z,69.13
2022-09-13T10:11:59.540Z,67.35
2022-09-13T10:12:59.537Z,68.48
2022-09-13T10:13:59.529Z,68.64
2022-09-13T10:14:59.558Z,66.55
2022-09-13T10:15:59.517Z,67.03
2022-09-13T10:16:59.553Z,66.06
2022-09-13T10:17:59.487Z,68.80
2022-09-13T10:18:59.485Z,67.51
2022-09-13T10:19:59.486Z,68.48
2022-09-13T10:20:59.500Z,67.03
2022-09-13T10:21:59.472Z,67.84
2022-09-13T10:22:59.472Z,65.90
2022-09-13T10:23:59.442Z,66.87
2022-09-13T10:24:59.431Z,66.87
2022-09-13T10:25:59.448Z,65.58
2022-09-13T10:26:59.441Z,68.64
2022-09-13T10:27:59.408Z,67.68
2022-09-13T10:28:59.404Z,71.22
2022-09-13T10:29:59.451Z,65.26
2022-09-13T10:30:59.467Z,68.48
2022-09-13T10:31:59.411Z,68.48
2022-09-13T10:32:59.378Z,67.03
2022-09-13T10:33:59.378Z,67.84
2022-09-13T10:34:59.350Z,70.25
2022-09-13T10:35:59.358Z,67.51
2022-09-13T10:36:59.365Z,67.19
2022-09-13T10:37:59.332Z,71.87
2022-09-13T10:38:59.375Z,67.35
2022-09-13T10:39:59.375Z,67.51
2022-09-13T10:40:59.345Z,67.51
2022-09-13T10:41:59.306Z,68.00
2022-09-13T10:42:59.309Z,68.48
2022-09-13T10:43:59.310Z,66.06
2022-09-13T10:44:59.273Z,66.23
2022-09-13T10:45:59.385Z,67.19
2022-09-13T10:46:59.326Z,67.51
2022-09-13T10:47:59.255Z,71.38
2022-09-13T10:48:59.256Z,67.03
2022-09-13T10:49:59.257Z,68.96
2022-09-13T10:50:59.258Z,67.35
2022-09-13T10:51:59.226Z,65.90
2022-09-13T10:52:59.400Z,65.58
2022-09-13T10:53:59.221Z,65.58
2022-09-13T10:54:59.221Z,68.00
2022-09-13T10:55:59.211Z,65.90
2022-09-13T10:56:59.195Z,66.71
2022-09-13T10:57:59.199Z,66.87
2022-09-13T10:58:59.166Z,67.03
2022-09-13T10:59:59.156Z,66.23
2022-09-13T11:00:59.287Z,65.74
2022-09-13T11:01:59.209Z,67.51
2022-09-13T11:02:59.147Z,65.10
2022-09-13T11:03:59.198Z,64.94
2022-09-13T11:04:59.158Z,66.23
2022-09-13T11:05:59.121Z,67.19
2022-09-13T11:07:01.903Z,65.42
2022-09-13T11:07:59.117Z,64.29
2022-09-13T11:08:59.112Z,66.39
2022-09-13T11:09:59.091Z,65.10
2022-09-13T11:10:59.134Z,66.23
2022-09-13T11:11:59.069Z,65.58
2022-09-13T11:12:59.279Z,63.81
2022-09-13T11:13:59.222Z,62.52
2022-09-13T11:14:59.686Z,65.90
2022-09-13T11:15:59.533Z,66.06
2022-09-13T11:16:59.106Z,68.48
2022-09-13T11:17:59.075Z,64.78
2022-09-13T11:18:59.062Z,62.04
2022-09-13T11:19:59.012Z,63.81
2022-09-13T11:20:59.036Z,65.10
2022-09-13T11:21:59.015Z,64.78
2022-09-13T11:22:59.054Z,66.06
2022-09-13T11:23:59.070Z,64.61
2022-09-13T11:24:58.999Z,65.58
2022-09-13T11:25:59.114Z,63.81
2022-09-13T11:26:58.968Z,65.42
2022-09-13T11:27:58.965Z,65.26
2022-09-13T11:28:58.940Z,64.29
2022-09-13T11:29:58.937Z,66.87
2022-09-13T11:30:59.494Z,65.74
2022-09-13T11:31:59.013Z,65.26
2022-09-13T11:32:58.912Z,67.51
2022-09-13T11:33:58.945Z,65.74
2022-09-13T11:34:58.907Z,64.61
2022-09-13T11:35:58.904Z,64.78
2022-09-13T11:36:58.929Z,68.00
2022-09-13T11:37:58.884Z,65.90
2022-09-13T11:38:58.956Z,67.03
2022-09-13T11:39:58.955Z,69.13
2022-09-13T11:40:59.031Z,66.06
2022-09-13T11:41:59.013Z,65.90
2022-09-13T11:42:58.888Z,66.71
2022-09-13T11:43:58.870Z,70.58
2022-09-13T11:44:58.922Z,67.19
2022-09-13T11:45:58.954Z,67.84
2022-09-13T11:46:58.834Z,66.87
2022-09-13T11:47:58.847Z,66.87
2022-09-13T11:48:58.794Z,67.51
2022-09-13T11:49:58.826Z,67.35
2022-09-13T11:50:59.931Z,67.84
2022-09-13T11:51:58.826Z,67.19
2022-09-13T11:52:58.785Z,69.45
2022-09-13T11:53:58.810Z,68.16
2022-09-13T11:55:05.478Z,65.90
2022-09-13T11:55:58.844Z,68.00
2022-09-13T11:56:59.887Z,66.71
2022-09-13T11:57:59.391Z,68.64
2022-09-13T11:59:19.814Z,66.39
2022-09-13T12:00:19.710Z,67.35
2022-09-13T12:00:58.690Z,64.29
2022-09-13T12:01:58.821Z,65.74
2022-09-13T12:02:59.311Z,62.04
2022-09-13T12:03:59.229Z,65.74
2022-09-13T12:05:20.968Z,66.06
2022-09-13T12:05:59.728Z,68.16
2022-09-13T12:06:58.684Z,67.84
2022-09-13T12:07:58.674Z,69.61
2022-09-13T12:08:58.677Z,68.80
2022-09-13T12:09:58.727Z,68.16
2022-09-13T12:10:58.641Z,67.84
2022-09-13T12:11:58.628Z,73.32
2022-09-13T12:12:58.610Z,68.80
2022-09-13T12:13:58.598Z,67.68
2022-09-13T12:14:58.604Z,66.23
2022-09-13T12:15:58.586Z,67.51
2022-09-13T12:16:58.665Z,68.64
2022-09-13T12:18:06.102Z,66.87
2022-09-13T12:19:06.120Z,67.84
2022-09-13T12:19:58.557Z,66.23
2022-09-13T12:21:08.322Z,66.71
2022-09-13T12:22:06.085Z,66.87
2022-09-13T12:22:58.542Z,66.39
2022-09-13T12:23:58.732Z,66.71
2022-09-13T12:24:58.601Z,65.26
2022-09-13T12:25:58.517Z,67.19
2022-09-13T12:26:58.851Z,66.39
2022-09-13T12:27:58.493Z,68.32
2022-09-13T12:28:58.969Z,68.48
2022-09-13T12:29:58.502Z,66.23
2022-09-13T12:30:58.475Z,67.19
2022-09-13T12:31:59.401Z,68.32
2022-09-13T12:32:59.847Z,67.35
2022-09-13T12:33:58.443Z,65.58
2022-09-13T12:34:58.503Z,64.78
2022-09-13T12:35:58.418Z,65.74
2022-09-13T12:36:58.890Z,66.23
2022-09-13T12:37:58.409Z,67.84
2022-09-13T12:38:58.404Z,65.42
2022-09-13T12:39:58.425Z,66.39
2022-09-13T12:40:58.402Z,64.78
2022-09-13T12:41:58.555Z,65.58
2022-09-13T12:42:58.890Z,65.90
2022-09-13T12:43:58.426Z,66.87
2022-09-13T12:44:58.358Z,65.74
2022-09-13T12:45:58.408Z,66.06
2022-09-13T12:47:00.385Z,67.51
2022-09-13T12:47:58.351Z,66.23
2022-09-13T12:48:58.369Z,67.19
2022-09-13T12:50:01.416Z,66.71
2022-09-13T12:50:59.306Z,66.39
2022-09-13T12:51:58.330Z,65.42
2022-09-13T12:52:58.851Z,64.61
2022-09-13T12:53:58.370Z,63.81
2022-09-13T12:54:58.552Z,68.16
2022-09-13T12:55:58.619Z,63.97